New Stream 2 — JD4055 — position and weather

sailwx.info

Track history (hours):
 
Tides and Currents Weather Stations Pressure Air Temp Water Temp Dewpoint Dewpoint Depression Visibility Wind Speed Wind Dir Waves Ship Positions

New Stream 2

Last reported at 2018-Jul-21 10:23 UTC. Time now 2018-Jul-22 19:39 UTC.
Position N 35°01' E 139°28'.

Length 54 m; draft 3.5 m.

Type: Tanker. MMSI: 431008234.

Date/timePositionNaut miles runAvg speedWind from/ knotsBaromVisibWave heightAir tempDewpointWater temp
2018-Jul-21 10:23N 35°01' E 139°28'4 9.6
2018-Jul-21 09:59N 35°03' E 139°32'5 9.8
2018-Jul-21 09:30N 35°05' E 139°37'510.5
2018-Jul-21 09:00N 35°08' E 139°42'510.7
2018-Jul-21 08:31N 35°13' E 139°46'510.5
2018-Jul-21 08:00N 35°18' E 139°44'511.1
2018-Jul-21 07:30N 35°23' E 139°42'5 9.6
2018-Jul-21 07:00N 35°27' E 139°40'2 3.0
2018-Jul-21 06:30N 35°29' E 139°40'0 0.0
2018-Jul-21 05:57N 35°29' E 139°40'0 0.0
2018-Jul-21 05:30N 35°29' E 139°40'0 0.0
2018-Jul-21 05:00N 35°29' E 139°40'0 0.0
2018-Jul-21 04:24N 35°29' E 139°40'0 0.0
2018-Jul-21 03:54N 35°29' E 139°40'0 0.0
2018-Jul-21 03:30N 35°29' E 139°40'0 0.0
2018-Jul-21 02:57N 35°29' E 139°40'0 0.0
2018-Jul-21 02:30N 35°29' E 139°40'0 0.0
2018-Jul-21 02:00N 35°29' E 139°40'0 0.0
2018-Jul-21 01:30N 35°29' E 139°40'0 0.0
2018-Jul-21 00:51N 35°29' E 139°40'0 0.0
2018-Jul-21 00:30N 35°29' E 139°40'0 0.0
2018-Jul-20 23:54N 35°29' E 139°40'0 0.0
2018-Jul-20 23:30N 35°29' E 139°40'0 0.0
2018-Jul-20 23:00N 35°29' E 139°40'0 0.0
2018-Jul-20 22:27N 35°29' E 139°40'0 0.0
2018-Jul-20 22:00N 35°29' E 139°40'0 0.0
2018-Jul-20 21:30N 35°29' E 139°40'0 0.0
2018-Jul-20 21:00N 35°29' E 139°40'0 0.0
2018-Jul-20 20:30N 35°29' E 139°40'0 0.0
2018-Jul-20 20:00N 35°29' E 139°40'0 0.0
2018-Jul-20 19:21N 35°29' E 139°40'0 0.0
2018-Jul-20 19:00N 35°29' E 139°40'0 0.0
2018-Jul-20 18:30N 35°29' E 139°40'0 0.0
2018-Jul-20 18:00N 35°29' E 139°40'0 0.0
2018-Jul-20 17:30N 35°29' E 139°40'0 0.0
2018-Jul-20 17:00N 35°29' E 139°40'0 0.0
2018-Jul-20 16:24N 35°29' E 139°40'0 0.0
2018-Jul-20 16:00N 35°29' E 139°40'0 0.0
2018-Jul-20 15:30N 35°29' E 139°40'0 0.0
2018-Jul-20 15:00N 35°29' E 139°40'0 0.0
2018-Jul-20 14:27N 35°29' E 139°40'0 0.0
2018-Jul-20 14:00N 35°29' E 139°40'0 0.0
2018-Jul-20 13:30N 35°29' E 139°40'0 0.0
2018-Jul-20 13:00N 35°29' E 139°40'0 0.0
2018-Jul-20 12:30N 35°29' E 139°40'0 0.0
2018-Jul-20 11:57N 35°29' E 139°40'0 0.0
2018-Jul-20 11:30N 35°29' E 139°40'0 0.0
2018-Jul-20 10:57N 35°29' E 139°40'0 0.0
2018-Jul-20 10:27N 35°29' E 139°40'0 0.0
2018-Jul-20 10:00N 35°29' E 139°40'0 0.0
2018-Jul-20 09:30N 35°29' E 139°40'0 0.0
2018-Jul-20 09:00N 35°29' E 139°40'0 0.0
2018-Jul-20 08:27N 35°29' E 139°40'0 0.0
2018-Jul-20 07:57N 35°29' E 139°40'0 0.0
2018-Jul-20 07:30N 35°29' E 139°40'0 0.0
2018-Jul-20 07:00N 35°29' E 139°40'0 0.0
2018-Jul-20 06:30N 35°29' E 139°40'0 0.0
2018-Jul-20 05:57N 35°29' E 139°40'0 0.0
2018-Jul-20 05:24N 35°29' E 139°40'0 0.0
2018-Jul-20 04:57N 35°29' E 139°40'0 0.0
2018-Jul-20 04:30N 35°29' E 139°40'0 0.0
2018-Jul-20 04:00N 35°29' E 139°40'0 0.0
2018-Jul-20 03:30N 35°29' E 139°40'0 0.0
2018-Jul-20 03:00N 35°29' E 139°40'0 0.0
2018-Jul-20 02:30N 35°29' E 139°40'0 0.0
2018-Jul-20 02:00N 35°29' E 139°40'0 0.0
2018-Jul-20 01:30N 35°29' E 139°40'0 0.0
2018-Jul-20 01:00N 35°29' E 139°40'0 0.0
2018-Jul-20 00:30N 35°29' E 139°40'0 0.0
2018-Jul-19 23:57N 35°29' E 139°40'0 0.0
2018-Jul-19 23:27N 35°29' E 139°40'0 0.0
2018-Jul-19 22:54N 35°29' E 139°40'0 0.0
2018-Jul-19 22:30N 35°29' E 139°40'0 0.0
2018-Jul-19 22:00N 35°29' E 139°40'2 4.6
2018-Jul-19 21:30N 35°27' E 139°41'1 2.0
2018-Jul-19 21:00N 35°26' E 139°43'0 0.0
2018-Jul-19 20:29N 35°26' E 139°43'0 0.0
2018-Jul-19 20:00N 35°26' E 139°43'0 0.0
2018-Jul-19 19:30N 35°26' E 139°43'0 0.0
2018-Jul-19 18:59N 35°26' E 139°43'0 0.0
2018-Jul-19 18:29N 35°26' E 139°43'0 0.0
2018-Jul-19 17:59N 35°26' E 139°43'0 0.0
2018-Jul-19 17:29N 35°26' E 139°43'0 0.0
2018-Jul-19 17:00N 35°26' E 139°43'0 0.0
2018-Jul-19 16:29N 35°26' E 139°43'0 0.0
2018-Jul-19 15:59N 35°26' E 139°43'0 0.0
2018-Jul-19 15:29N 35°26' E 139°43'0 0.0
2018-Jul-19 14:59N 35°26' E 139°43'0 0.0
2018-Jul-19 13:59N 35°26' E 139°43'0 0.0
2018-Jul-19 13:29N 35°26' E 139°43'0 0.0
2018-Jul-19 12:59N 35°26' E 139°43'0 0.0
2018-Jul-19 12:29N 35°26' E 139°43'0 0.0
2018-Jul-19 11:59N 35°26' E 139°43'0 0.0
2018-Jul-19 11:29N 35°26' E 139°43'0 0.0
2018-Jul-19 10:59N 35°26' E 139°43'0 0.0
2018-Jul-19 10:29N 35°26' E 139°43'0 0.0
2018-Jul-19 09:59N 35°26' E 139°43'1 1.8
2018-Jul-19 09:30N 35°26' E 139°44'510.6
2018-Jul-19 09:01N 35°21' E 139°43'611.6
2018-Jul-19 08:30N 35°16' E 139°46'611.4
2018-Jul-19 08:00N 35°10' E 139°46'611.2
2018-Jul-19 07:30N 35°06' E 139°42'611.4
2018-Jul-19 06:59N 35°02' E 139°37'23610.3
2018-Jul-18 08:06N 33°52' E 135°03'211.7
2018-Jul-18 07:57N 33°54' E 135°02'512.0
2018-Jul-18 07:30N 33°59' E 135°02'611.5
2018-Jul-18 07:00N 34°05' E 135°02'510.9
2018-Jul-18 06:30N 34°10' E 135°02'611.3
2018-Jul-18 06:00N 34°16' E 135°03'612.0
2018-Jul-18 05:30N 34°22' E 135°06'611.8
2018-Jul-18 05:00N 34°27' E 135°10'611.7
2018-Jul-18 04:30N 34°32' E 135°13'611.2
2018-Jul-18 04:00N 34°37' E 135°16'611.0
2018-Jul-18 03:30N 34°42' E 135°18'0 0.9
2018-Jul-18 03:00N 34°42' E 135°18'0 0.0
2018-Jul-18 02:29N 34°42' E 135°18'0 0.0
2018-Jul-18 02:00N 34°42' E 135°18'0 0.0
2018-Jul-18 01:30N 34°42' E 135°18'0 0.0
2018-Jul-18 01:00N 34°42' E 135°18'0 0.0
2018-Jul-18 00:29N 34°42' E 135°18'0 0.0
2018-Jul-18 00:00N 34°42' E 135°18'0 0.0
2018-Jul-17 23:30N 34°42' E 135°18'0 0.0
2018-Jul-17 23:00N 34°42' E 135°18'0 0.0
2018-Jul-17 22:30N 34°42' E 135°18'0 0.2
2018-Jul-17 22:00N 34°42' E 135°18'1 1.5
2018-Jul-17 21:29N 34°42' E 135°18'0 0.0
2018-Jul-17 20:59N 34°42' E 135°18'0 0.0
2018-Jul-17 20:29N 34°42' E 135°18'0 0.0
2018-Jul-17 19:59N 34°42' E 135°18'0 0.0
2018-Jul-17 19:29N 34°42' E 135°18'0 0.0
2018-Jul-17 18:53N 34°42' E 135°18'0 0.1
2018-Jul-17 18:29N 34°42' E 135°18'0 0.0
2018-Jul-17 17:59N 34°42' E 135°18'0 0.0
2018-Jul-17 17:29N 34°42' E 135°18'0 0.0
2018-Jul-17 16:59N 34°42' E 135°18'0 0.0
2018-Jul-17 16:29N 34°42' E 135°18'0 0.0
2018-Jul-17 15:59N 34°42' E 135°18'0 0.0
2018-Jul-17 15:29N 34°42' E 135°18'0 0.0
2018-Jul-17 14:59N 34°42' E 135°18'0 0.0
2018-Jul-17 14:29N 34°42' E 135°18'0 0.0
2018-Jul-17 13:59N 34°42' E 135°18'0 0.0
2018-Jul-17 13:29N 34°42' E 135°18'0 0.1
2018-Jul-17 12:59N 34°42' E 135°18'0 0.0
2018-Jul-17 12:29N 34°42' E 135°18'4 8.1
2018-Jul-17 12:00N 34°38' E 135°18'611.8
2018-Jul-17 11:30N 34°32' E 135°15'511.0
2018-Jul-17 11:01N 34°28' E 135°11'611.7
2018-Jul-17 10:31N 34°23' E 135°07'611.7
2018-Jul-17 09:59N 34°17' E 135°04'611.6
2018-Jul-17 09:30N 34°12' E 135°03'612.0
2018-Jul-17 09:00N 34°06' E 135°03'712.0
2018-Jul-17 08:26N 33°59' E 135°03'221 9.8
2018-Jul-16 10:00N 34°57' E 139°21'5 8.7
2018-Jul-16 09:29N 34°60' E 139°26'5 9.2
2018-Jul-16 08:59N 35°02' E 139°31'510.9
2018-Jul-16 08:30N 35°05' E 139°36'611.5
2018-Jul-16 08:00N 35°08' E 139°42'611.1
2018-Jul-16 07:29N 35°13' E 139°46'5 9.7
2018-Jul-16 07:00N 35°17' E 139°45'510.1
2018-Jul-16 06:30N 35°22' E 139°42'5 9.9
2018-Jul-16 06:00N 35°26' E 139°45'510.7
2018-Jul-16 05:30N 35°29' E 139°51'5 0.4
2018-Jul-15 16:36N 35°31' E 139°56'111.2
2018-Jul-15 16:30N 35°31' E 139°55'611.4
2018-Jul-15 16:00N 35°27' E 139°49'611.1
2018-Jul-15 15:30N 35°24' E 139°44'3 5.2
2018-Jul-15 15:00N 35°22' E 139°41'0 0.1
2018-Jul-15 14:29N 35°22' E 139°41'0 0.0
2018-Jul-15 13:58N 35°23' E 139°41'0 0.2
2018-Jul-15 13:28N 35°23' E 139°41'0 0.1
2018-Jul-15 12:58N 35°22' E 139°41'0 0.1
2018-Jul-15 12:28N 35°22' E 139°41'0 0.1
2018-Jul-15 11:58N 35°23' E 139°41'0 0.0
2018-Jul-15 11:28N 35°22' E 139°41'1 1.9
2018-Jul-15 11:00N 35°23' E 139°40'0 0.1
2018-Jul-15 10:30N 35°23' E 139°40'0 0.1
2018-Jul-15 10:00N 35°23' E 139°40'0 0.0
2018-Jul-15 09:30N 35°23' E 139°40'0 0.0
2018-Jul-15 09:00N 35°23' E 139°40'0 0.0
2018-Jul-15 08:30N 35°23' E 139°40'0 0.0
2018-Jul-15 08:00N 35°23' E 139°40'0 0.0
2018-Jul-15 07:30N 35°23' E 139°40'0 0.0
2018-Jul-15 07:00N 35°23' E 139°40'0 0.0
2018-Jul-15 06:30N 35°23' E 139°40'0 0.0
2018-Jul-15 06:00N 35°23' E 139°40'0 0.0
2018-Jul-15 05:30N 35°23' E 139°40'0 0.0
2018-Jul-15 05:00N 35°23' E 139°40'0 0.0
2018-Jul-15 04:30N 35°23' E 139°40'0 0.1
2018-Jul-15 04:00N 35°23' E 139°40'0 0.0
2018-Jul-15 03:30N 35°23' E 139°40'0 0.0
2018-Jul-15 03:00N 35°23' E 139°40'0 0.0
2018-Jul-15 02:30N 35°23' E 139°40'0 0.0
2018-Jul-15 02:00N 35°23' E 139°40'0 0.0
2018-Jul-15 01:30N 35°23' E 139°40'0 0.0
2018-Jul-15 01:00N 35°23' E 139°40'0 0.0
2018-Jul-15 00:27N 35°23' E 139°40'0 0.0
2018-Jul-15 00:00N 35°23' E 139°40'0 0.0
2018-Jul-14 23:30N 35°23' E 139°40'0 0.1
2018-Jul-14 23:00N 35°23' E 139°40'0 0.0
2018-Jul-14 22:30N 35°23' E 139°40'0 0.0
2018-Jul-14 21:54N 35°23' E 139°40'2 4.5
2018-Jul-14 21:31N 35°24' E 139°42'510.0
2018-Jul-14 21:00N 35°29' E 139°40'0 0.7
2018-Jul-14 20:25N 35°29' E 139°40'0 0.0
2018-Jul-14 19:58N 35°29' E 139°40'0 0.0
2018-Jul-14 19:28N 35°29' E 139°40'0 0.0
2018-Jul-14 18:58N 35°29' E 139°40'0 0.0
2018-Jul-14 18:25N 35°29' E 139°40'0 0.0
2018-Jul-14 17:52N 35°29' E 139°40'0 0.0
2018-Jul-14 17:28N 35°29' E 139°40'0 0.0
2018-Jul-14 16:52N 35°29' E 139°40'0 0.0
2018-Jul-14 16:22N 35°29' E 139°40'0 0.0
2018-Jul-14 15:55N 35°29' E 139°40'0 0.0
2018-Jul-14 15:22N 35°29' E 139°40'0 0.0
2018-Jul-14 14:55N 35°29' E 139°40'0 0.0
2018-Jul-14 14:19N 35°29' E 139°40'0 0.0
2018-Jul-14 13:22N 35°29' E 139°40'0 0.0
2018-Jul-14 12:55N 35°29' E 139°40'0 0.0
2018-Jul-14 12:25N 35°29' E 139°40'0 0.0
2018-Jul-14 11:49N 35°29' E 139°40'0 0.0
2018-Jul-14 11:28N 35°29' E 139°40'0 0.0
2018-Jul-14 10:43N 35°29' E 139°40'0 0.0
2018-Jul-14 10:25N 35°29' E 139°40'0 0.0
2018-Jul-14 09:58N 35°29' E 139°40'0 0.0
2018-Jul-14 09:28N 35°29' E 139°40'0 0.0
2018-Jul-14 08:58N 35°29' E 139°40'0 0.0
2018-Jul-14 08:10N 35°29' E 139°40'0 0.0
2018-Jul-14 07:52N 35°29' E 139°40'0 0.0
2018-Jul-14 07:22N 35°29' E 139°40'0 0.0
2018-Jul-14 06:58N 35°29' E 139°40'0 0.0
2018-Jul-14 06:28N 35°29' E 139°40'0 0.0
2018-Jul-14 05:58N 35°29' E 139°40'0 0.0
2018-Jul-14 04:40N 35°29' E 139°40'0 0.0
2018-Jul-14 04:28N 35°29' E 139°40'0 0.0
2018-Jul-14 03:55N 35°29' E 139°40'0 0.0
2018-Jul-14 03:19N 35°29' E 139°40'0 0.0
2018-Jul-14 02:58N 35°29' E 139°40'0 0.0
2018-Jul-14 02:28N 35°29' E 139°40'0 0.0
2018-Jul-14 01:55N 35°29' E 139°40'0 0.0
2018-Jul-14 01:25N 35°29' E 139°40'0 0.0
2018-Jul-14 00:55N 35°29' E 139°40'0 0.0
2018-Jul-14 00:28N 35°29' E 139°40'0 0.0
2018-Jul-13 23:55N 35°29' E 139°40'0 0.0
2018-Jul-13 23:28N 35°29' E 139°40'0 0.0
2018-Jul-13 22:58N 35°29' E 139°40'0 0.0
2018-Jul-13 22:13N 35°29' E 139°40'0 0.0
2018-Jul-13 21:58N 35°29' E 139°40'0 0.0
2018-Jul-13 21:28N 35°29' E 139°40'0 0.0
2018-Jul-13 20:58N 35°29' E 139°40'0 0.0
2018-Jul-13 20:25N 35°29' E 139°40'0 0.0
2018-Jul-13 19:58N 35°29' E 139°40'0 0.0
2018-Jul-13 19:28N 35°29' E 139°40'0 0.0
2018-Jul-13 18:55N 35°29' E 139°40'0 0.0
2018-Jul-13 18:22N 35°29' E 139°40'0 0.0
2018-Jul-13 17:58N 35°29' E 139°40'0 0.0
2018-Jul-13 17:19N 35°29' E 139°40'0 0.0
2018-Jul-13 16:55N 35°29' E 139°40'0 0.0
2018-Jul-13 16:28N 35°29' E 139°40'0 0.0
2018-Jul-13 15:55N 35°29' E 139°40'0 0.0
2018-Jul-13 15:28N 35°29' E 139°40'0 0.0
2018-Jul-13 14:55N 35°29' E 139°40'0 0.0
2018-Jul-13 14:28N 35°29' E 139°40'0 0.0
2018-Jul-13 13:16N 35°29' E 139°40'0 0.0
2018-Jul-13 12:52N 35°29' E 139°40'0 0.0
2018-Jul-13 12:25N 35°29' E 139°40'0 0.0
2018-Jul-13 11:58N 35°29' E 139°40'0 0.0
2018-Jul-13 11:22N 35°29' E 139°40'0 0.0
2018-Jul-13 10:52N 35°29' E 139°40'0 0.0
2018-Jul-13 10:04N 35°29' E 139°40'0 0.0
2018-Jul-13 09:58N 35°29' E 139°40'0 0.0
2018-Jul-13 09:25N 35°29' E 139°40'0 0.0
2018-Jul-13 08:55N 35°29' E 139°40'0 0.0
2018-Jul-13 08:28N 35°29' E 139°40'0 0.0
2018-Jul-13 07:58N 35°29' E 139°40'0 0.0
2018-Jul-13 07:28N 35°29' E 139°40'0 0.0
2018-Jul-13 06:58N 35°29' E 139°40'1 2.3
2018-Jul-13 06:30N 35°29' E 139°42'610.4
2018-Jul-13 05:59N 35°30' E 139°48'5 0.3
2018-Jul-12 13:44N 35°31' E 139°55'311.3
2018-Jul-12 13:30N 35°29' E 139°52'611.2
2018-Jul-12 13:00N 35°25' E 139°47'611.4
2018-Jul-12 12:30N 35°20' E 139°44'510.2
2018-Jul-12 12:00N 35°15' E 139°47'610.7
2018-Jul-12 11:29N 35°10' E 139°46'611.3
2018-Jul-12 11:00N 35°05' E 139°43'611.6
2018-Jul-12 10:30N 35°01' E 139°38'612.3
2018-Jul-12 10:00N 34°57' E 139°32'23110.0
2018-Jul-11 10:58N 33°52' E 135°04'711.5
2018-Jul-11 10:23N 33°58' E 135°02'  
Track history (hours):
 
Tides and Currents Weather Stations Pressure Air Temp Water Temp Dewpoint Dewpoint Depression Visibility Wind Speed Wind Dir Waves Ship Positions

New Stream 2

Last reported at 2018-Jul-21 10:23 UTC. Time now 2018-Jul-22 19:39 UTC.
Position N 35°01' E 139°28'.

Length 54 m; draft 3.5 m.

Type: Tanker. MMSI: 431008234.

Date/timePositionNaut miles runAvg speedWind from/ knotsBaromVisibWave heightAir tempDewpointWater temp
2018-Jul-21 10:23N 35°01' E 139°28'4 9.6
2018-Jul-21 09:59N 35°03' E 139°32'5 9.8
2018-Jul-21 09:30N 35°05' E 139°37'510.5
2018-Jul-21 09:00N 35°08' E 139°42'510.7
2018-Jul-21 08:31N 35°13' E 139°46'510.5
2018-Jul-21 08:00N 35°18' E 139°44'511.1
2018-Jul-21 07:30N 35°23' E 139°42'5 9.6
2018-Jul-21 07:00N 35°27' E 139°40'2 3.0
2018-Jul-21 06:30N 35°29' E 139°40'0 0.0
2018-Jul-21 05:57N 35°29' E 139°40'0 0.0
2018-Jul-21 05:30N 35°29' E 139°40'0 0.0
2018-Jul-21 05:00N 35°29' E 139°40'0 0.0
2018-Jul-21 04:24N 35°29' E 139°40'0 0.0
2018-Jul-21 03:54N 35°29' E 139°40'0 0.0
2018-Jul-21 03:30N 35°29' E 139°40'0 0.0
2018-Jul-21 02:57N 35°29' E 139°40'0 0.0
2018-Jul-21 02:30N 35°29' E 139°40'0 0.0
2018-Jul-21 02:00N 35°29' E 139°40'0 0.0
2018-Jul-21 01:30N 35°29' E 139°40'0 0.0
2018-Jul-21 00:51N 35°29' E 139°40'0 0.0
2018-Jul-21 00:30N 35°29' E 139°40'0 0.0
2018-Jul-20 23:54N 35°29' E 139°40'0 0.0
2018-Jul-20 23:30N 35°29' E 139°40'0 0.0
2018-Jul-20 23:00N 35°29' E 139°40'0 0.0
2018-Jul-20 22:27N 35°29' E 139°40'0 0.0
2018-Jul-20 22:00N 35°29' E 139°40'0 0.0
2018-Jul-20 21:30N 35°29' E 139°40'0 0.0
2018-Jul-20 21:00N 35°29' E 139°40'0 0.0
2018-Jul-20 20:30N 35°29' E 139°40'0 0.0
2018-Jul-20 20:00N 35°29' E 139°40'0 0.0
2018-Jul-20 19:21N 35°29' E 139°40'0 0.0
2018-Jul-20 19:00N 35°29' E 139°40'0 0.0
2018-Jul-20 18:30N 35°29' E 139°40'0 0.0
2018-Jul-20 18:00N 35°29' E 139°40'0 0.0
2018-Jul-20 17:30N 35°29' E 139°40'0 0.0
2018-Jul-20 17:00N 35°29' E 139°40'0 0.0
2018-Jul-20 16:24N 35°29' E 139°40'0 0.0
2018-Jul-20 16:00N 35°29' E 139°40'0 0.0
2018-Jul-20 15:30N 35°29' E 139°40'0 0.0
2018-Jul-20 15:00N 35°29' E 139°40'0 0.0
2018-Jul-20 14:27N 35°29' E 139°40'0 0.0
2018-Jul-20 14:00N 35°29' E 139°40'0 0.0
2018-Jul-20 13:30N 35°29' E 139°40'0 0.0
2018-Jul-20 13:00N 35°29' E 139°40'0 0.0
2018-Jul-20 12:30N 35°29' E 139°40'0 0.0
2018-Jul-20 11:57N 35°29' E 139°40'0 0.0
2018-Jul-20 11:30N 35°29' E 139°40'0 0.0
2018-Jul-20 10:57N 35°29' E 139°40'0 0.0
2018-Jul-20 10:27N 35°29' E 139°40'0 0.0
2018-Jul-20 10:00N 35°29' E 139°40'0 0.0
2018-Jul-20 09:30N 35°29' E 139°40'0 0.0
2018-Jul-20 09:00N 35°29' E 139°40'0 0.0
2018-Jul-20 08:27N 35°29' E 139°40'0 0.0
2018-Jul-20 07:57N 35°29' E 139°40'0 0.0
2018-Jul-20 07:30N 35°29' E 139°40'0 0.0
2018-Jul-20 07:00N 35°29' E 139°40'0 0.0
2018-Jul-20 06:30N 35°29' E 139°40'0 0.0
2018-Jul-20 05:57N 35°29' E 139°40'0 0.0
2018-Jul-20 05:24N 35°29' E 139°40'0 0.0
2018-Jul-20 04:57N 35°29' E 139°40'0 0.0
2018-Jul-20 04:30N 35°29' E 139°40'0 0.0
2018-Jul-20 04:00N 35°29' E 139°40'0 0.0
2018-Jul-20 03:30N 35°29' E 139°40'0 0.0
2018-Jul-20 03:00N 35°29' E 139°40'0 0.0
2018-Jul-20 02:30N 35°29' E 139°40'0 0.0
2018-Jul-20 02:00N 35°29' E 139°40'0 0.0
2018-Jul-20 01:30N 35°29' E 139°40'0 0.0
2018-Jul-20 01:00N 35°29' E 139°40'0 0.0
2018-Jul-20 00:30N 35°29' E 139°40'0 0.0
2018-Jul-19 23:57N 35°29' E 139°40'0 0.0
2018-Jul-19 23:27N 35°29' E 139°40'0 0.0
2018-Jul-19 22:54N 35°29' E 139°40'0 0.0
2018-Jul-19 22:30N 35°29' E 139°40'0 0.0
2018-Jul-19 22:00N 35°29' E 139°40'2 4.6
2018-Jul-19 21:30N 35°27' E 139°41'1 2.0
2018-Jul-19 21:00N 35°26' E 139°43'0 0.0
2018-Jul-19 20:29N 35°26' E 139°43'0 0.0
2018-Jul-19 20:00N 35°26' E 139°43'0 0.0
2018-Jul-19 19:30N 35°26' E 139°43'0 0.0
2018-Jul-19 18:59N 35°26' E 139°43'0 0.0
2018-Jul-19 18:29N 35°26' E 139°43'0 0.0
2018-Jul-19 17:59N 35°26' E 139°43'0 0.0
2018-Jul-19 17:29N 35°26' E 139°43'0 0.0
2018-Jul-19 17:00N 35°26' E 139°43'0 0.0
2018-Jul-19 16:29N 35°26' E 139°43'0 0.0
2018-Jul-19 15:59N 35°26' E 139°43'0 0.0
2018-Jul-19 15:29N 35°26' E 139°43'0 0.0
2018-Jul-19 14:59N 35°26' E 139°43'0 0.0
2018-Jul-19 13:59N 35°26' E 139°43'0 0.0
2018-Jul-19 13:29N 35°26' E 139°43'0 0.0
2018-Jul-19 12:59N 35°26' E 139°43'0 0.0
2018-Jul-19 12:29N 35°26' E 139°43'0 0.0
2018-Jul-19 11:59N 35°26' E 139°43'0 0.0
2018-Jul-19 11:29N 35°26' E 139°43'0 0.0
2018-Jul-19 10:59N 35°26' E 139°43'0 0.0
2018-Jul-19 10:29N 35°26' E 139°43'0 0.0
2018-Jul-19 09:59N 35°26' E 139°43'1 1.8
2018-Jul-19 09:30N 35°26' E 139°44'510.6
2018-Jul-19 09:01N 35°21' E 139°43'611.6
2018-Jul-19 08:30N 35°16' E 139°46'611.4
2018-Jul-19 08:00N 35°10' E 139°46'611.2
2018-Jul-19 07:30N 35°06' E 139°42'611.4
2018-Jul-19 06:59N 35°02' E 139°37'23610.3
2018-Jul-18 08:06N 33°52' E 135°03'211.7
2018-Jul-18 07:57N 33°54' E 135°02'512.0
2018-Jul-18 07:30N 33°59' E 135°02'611.5
2018-Jul-18 07:00N 34°05' E 135°02'510.9
2018-Jul-18 06:30N 34°10' E 135°02'611.3
2018-Jul-18 06:00N 34°16' E 135°03'612.0
2018-Jul-18 05:30N 34°22' E 135°06'611.8
2018-Jul-18 05:00N 34°27' E 135°10'611.7
2018-Jul-18 04:30N 34°32' E 135°13'611.2
2018-Jul-18 04:00N 34°37' E 135°16'611.0
2018-Jul-18 03:30N 34°42' E 135°18'0 0.9
2018-Jul-18 03:00N 34°42' E 135°18'0 0.0
2018-Jul-18 02:29N 34°42' E 135°18'0 0.0
2018-Jul-18 02:00N 34°42' E 135°18'0 0.0
2018-Jul-18 01:30N 34°42' E 135°18'0 0.0
2018-Jul-18 01:00N 34°42' E 135°18'0 0.0
2018-Jul-18 00:29N 34°42' E 135°18'0 0.0
2018-Jul-18 00:00N 34°42' E 135°18'0 0.0
2018-Jul-17 23:30N 34°42' E 135°18'0 0.0
2018-Jul-17 23:00N 34°42' E 135°18'0 0.0
2018-Jul-17 22:30N 34°42' E 135°18'0 0.2
2018-Jul-17 22:00N 34°42' E 135°18'1 1.5
2018-Jul-17 21:29N 34°42' E 135°18'0 0.0
2018-Jul-17 20:59N 34°42' E 135°18'0 0.0
2018-Jul-17 20:29N 34°42' E 135°18'0 0.0
2018-Jul-17 19:59N 34°42' E 135°18'0 0.0
2018-Jul-17 19:29N 34°42' E 135°18'0 0.0
2018-Jul-17 18:53N 34°42' E 135°18'0 0.1
2018-Jul-17 18:29N 34°42' E 135°18'0 0.0
2018-Jul-17 17:59N 34°42' E 135°18'0 0.0
2018-Jul-17 17:29N 34°42' E 135°18'0 0.0
2018-Jul-17 16:59N 34°42' E 135°18'0 0.0
2018-Jul-17 16:29N 34°42' E 135°18'0 0.0
2018-Jul-17 15:59N 34°42' E 135°18'0 0.0
2018-Jul-17 15:29N 34°42' E 135°18'0 0.0
2018-Jul-17 14:59N 34°42' E 135°18'0 0.0
2018-Jul-17 14:29N 34°42' E 135°18'0 0.0
2018-Jul-17 13:59N 34°42' E 135°18'0 0.0
2018-Jul-17 13:29N 34°42' E 135°18'0 0.1
2018-Jul-17 12:59N 34°42' E 135°18'0 0.0
2018-Jul-17 12:29N 34°42' E 135°18'4 8.1
2018-Jul-17 12:00N 34°38' E 135°18'611.8
2018-Jul-17 11:30N 34°32' E 135°15'511.0
2018-Jul-17 11:01N 34°28' E 135°11'611.7
2018-Jul-17 10:31N 34°23' E 135°07'611.7
2018-Jul-17 09:59N 34°17' E 135°04'611.6
2018-Jul-17 09:30N 34°12' E 135°03'612.0
2018-Jul-17 09:00N 34°06' E 135°03'712.0
2018-Jul-17 08:26N 33°59' E 135°03'221 9.8
2018-Jul-16 10:00N 34°57' E 139°21'5 8.7
2018-Jul-16 09:29N 34°60' E 139°26'5 9.2
2018-Jul-16 08:59N 35°02' E 139°31'510.9
2018-Jul-16 08:30N 35°05' E 139°36'611.5
2018-Jul-16 08:00N 35°08' E 139°42'611.1
2018-Jul-16 07:29N 35°13' E 139°46'5 9.7
2018-Jul-16 07:00N 35°17' E 139°45'510.1
2018-Jul-16 06:30N 35°22' E 139°42'5 9.9
2018-Jul-16 06:00N 35°26' E 139°45'510.7
2018-Jul-16 05:30N 35°29' E 139°51'5 0.4
2018-Jul-15 16:36N 35°31' E 139°56'111.2
2018-Jul-15 16:30N 35°31' E 139°55'611.4
2018-Jul-15 16:00N 35°27' E 139°49'611.1
2018-Jul-15 15:30N 35°24' E 139°44'3 5.2
2018-Jul-15 15:00N 35°22' E 139°41'0 0.1
2018-Jul-15 14:29N 35°22' E 139°41'0 0.0
2018-Jul-15 13:58N 35°23' E 139°41'0 0.2
2018-Jul-15 13:28N 35°23' E 139°41'0 0.1
2018-Jul-15 12:58N 35°22' E 139°41'0 0.1
2018-Jul-15 12:28N 35°22' E 139°41'0 0.1
2018-Jul-15 11:58N 35°23' E 139°41'0 0.0
2018-Jul-15 11:28N 35°22' E 139°41'1 1.9
2018-Jul-15 11:00N 35°23' E 139°40'0 0.1
2018-Jul-15 10:30N 35°23' E 139°40'0 0.1
2018-Jul-15 10:00N 35°23' E 139°40'0 0.0
2018-Jul-15 09:30N 35°23' E 139°40'0 0.0
2018-Jul-15 09:00N 35°23' E 139°40'0 0.0
2018-Jul-15 08:30N 35°23' E 139°40'0 0.0
2018-Jul-15 08:00N 35°23' E 139°40'0 0.0
2018-Jul-15 07:30N 35°23' E 139°40'0 0.0
2018-Jul-15 07:00N 35°23' E 139°40'0 0.0
2018-Jul-15 06:30N 35°23' E 139°40'0 0.0
2018-Jul-15 06:00N 35°23' E 139°40'0 0.0
2018-Jul-15 05:30N 35°23' E 139°40'0 0.0
2018-Jul-15 05:00N 35°23' E 139°40'0 0.0
2018-Jul-15 04:30N 35°23' E 139°40'0 0.1
2018-Jul-15 04:00N 35°23' E 139°40'0 0.0
2018-Jul-15 03:30N 35°23' E 139°40'0 0.0
2018-Jul-15 03:00N 35°23' E 139°40'0 0.0
2018-Jul-15 02:30N 35°23' E 139°40'0 0.0
2018-Jul-15 02:00N 35°23' E 139°40'0 0.0
2018-Jul-15 01:30N 35°23' E 139°40'0 0.0
2018-Jul-15 01:00N 35°23' E 139°40'0 0.0
2018-Jul-15 00:27N 35°23' E 139°40'0 0.0
2018-Jul-15 00:00N 35°23' E 139°40'0 0.0
2018-Jul-14 23:30N 35°23' E 139°40'0 0.1
2018-Jul-14 23:00N 35°23' E 139°40'0 0.0
2018-Jul-14 22:30N 35°23' E 139°40'0 0.0
2018-Jul-14 21:54N 35°23' E 139°40'2 4.5
2018-Jul-14 21:31N 35°24' E 139°42'510.0
2018-Jul-14 21:00N 35°29' E 139°40'0 0.7
2018-Jul-14 20:25N 35°29' E 139°40'0 0.0
2018-Jul-14 19:58N 35°29' E 139°40'0 0.0
2018-Jul-14 19:28N 35°29' E 139°40'0 0.0
2018-Jul-14 18:58N 35°29' E 139°40'0 0.0
2018-Jul-14 18:25N 35°29' E 139°40'0 0.0
2018-Jul-14 17:52N 35°29' E 139°40'0 0.0
2018-Jul-14 17:28N 35°29' E 139°40'0 0.0
2018-Jul-14 16:52N 35°29' E 139°40'0 0.0
2018-Jul-14 16:22N 35°29' E 139°40'0 0.0
2018-Jul-14 15:55N 35°29' E 139°40'0 0.0
2018-Jul-14 15:22N 35°29' E 139°40'0 0.0
2018-Jul-14 14:55N 35°29' E 139°40'0 0.0
2018-Jul-14 14:19N 35°29' E 139°40'0 0.0
2018-Jul-14 13:22N 35°29' E 139°40'0 0.0
2018-Jul-14 12:55N 35°29' E 139°40'0 0.0
2018-Jul-14 12:25N 35°29' E 139°40'0 0.0
2018-Jul-14 11:49N 35°29' E 139°40'0 0.0
2018-Jul-14 11:28N 35°29' E 139°40'0 0.0
2018-Jul-14 10:43N 35°29' E 139°40'0 0.0
2018-Jul-14 10:25N 35°29' E 139°40'0 0.0
2018-Jul-14 09:58N 35°29' E 139°40'0 0.0
2018-Jul-14 09:28N 35°29' E 139°40'0 0.0
2018-Jul-14 08:58N 35°29' E 139°40'0 0.0
2018-Jul-14 08:10N 35°29' E 139°40'0 0.0
2018-Jul-14 07:52N 35°29' E 139°40'0 0.0
2018-Jul-14 07:22N 35°29' E 139°40'0 0.0
2018-Jul-14 06:58N 35°29' E 139°40'0 0.0
2018-Jul-14 06:28N 35°29' E 139°40'0 0.0
2018-Jul-14 05:58N 35°29' E 139°40'0 0.0
2018-Jul-14 04:40N 35°29' E 139°40'0 0.0
2018-Jul-14 04:28N 35°29' E 139°40'0 0.0
2018-Jul-14 03:55N 35°29' E 139°40'0 0.0
2018-Jul-14 03:19N 35°29' E 139°40'0 0.0
2018-Jul-14 02:58N 35°29' E 139°40'0 0.0
2018-Jul-14 02:28N 35°29' E 139°40'0 0.0
2018-Jul-14 01:55N 35°29' E 139°40'0 0.0
2018-Jul-14 01:25N 35°29' E 139°40'0 0.0
2018-Jul-14 00:55N 35°29' E 139°40'0 0.0
2018-Jul-14 00:28N 35°29' E 139°40'0 0.0
2018-Jul-13 23:55N 35°29' E 139°40'0 0.0
2018-Jul-13 23:28N 35°29' E 139°40'0 0.0
2018-Jul-13 22:58N 35°29' E 139°40'0 0.0
2018-Jul-13 22:13N 35°29' E 139°40'0 0.0
2018-Jul-13 21:58N 35°29' E 139°40'0 0.0
2018-Jul-13 21:28N 35°29' E 139°40'0 0.0
2018-Jul-13 20:58N 35°29' E 139°40'0 0.0
2018-Jul-13 20:25N 35°29' E 139°40'0 0.0
2018-Jul-13 19:58N 35°29' E 139°40'0 0.0
2018-Jul-13 19:28N 35°29' E 139°40'0 0.0
2018-Jul-13 18:55N 35°29' E 139°40'0 0.0
2018-Jul-13 18:22N 35°29' E 139°40'0 0.0
2018-Jul-13 17:58N 35°29' E 139°40'0 0.0
2018-Jul-13 17:19N 35°29' E 139°40'0 0.0
2018-Jul-13 16:55N 35°29' E 139°40'0 0.0
2018-Jul-13 16:28N 35°29' E 139°40'0 0.0
2018-Jul-13 15:55N 35°29' E 139°40'0 0.0
2018-Jul-13 15:28N 35°29' E 139°40'0 0.0
2018-Jul-13 14:55N 35°29' E 139°40'0 0.0
2018-Jul-13 14:28N 35°29' E 139°40'0 0.0
2018-Jul-13 13:16N 35°29' E 139°40'0 0.0
2018-Jul-13 12:52N 35°29' E 139°40'0 0.0
2018-Jul-13 12:25N 35°29' E 139°40'0 0.0
2018-Jul-13 11:58N 35°29' E 139°40'0 0.0
2018-Jul-13 11:22N 35°29' E 139°40'0 0.0
2018-Jul-13 10:52N 35°29' E 139°40'0 0.0
2018-Jul-13 10:04N 35°29' E 139°40'0 0.0
2018-Jul-13 09:58N 35°29' E 139°40'0 0.0
2018-Jul-13 09:25N 35°29' E 139°40'0 0.0
2018-Jul-13 08:55N 35°29' E 139°40'0 0.0
2018-Jul-13 08:28N 35°29' E 139°40'0 0.0
2018-Jul-13 07:58N 35°29' E 139°40'0 0.0
2018-Jul-13 07:28N 35°29' E 139°40'0 0.0
2018-Jul-13 06:58N 35°29' E 139°40'1 2.3
2018-Jul-13 06:30N 35°29' E 139°42'610.4
2018-Jul-13 05:59N 35°30' E 139°48'5 0.3
2018-Jul-12 13:44N 35°31' E 139°55'311.3
2018-Jul-12 13:30N 35°29' E 139°52'611.2
2018-Jul-12 13:00N 35°25' E 139°47'611.4
2018-Jul-12 12:30N 35°20' E 139°44'510.2
2018-Jul-12 12:00N 35°15' E 139°47'610.7
2018-Jul-12 11:29N 35°10' E 139°46'611.3
2018-Jul-12 11:00N 35°05' E 139°43'611.6
2018-Jul-12 10:30N 35°01' E 139°38'612.3
2018-Jul-12 10:00N 34°57' E 139°32'23110.0
2018-Jul-11 10:58N 33°52' E 135°04'711.5
2018-Jul-11 10:23N 33°58' E 135°02'  

Dump ship's entire track history